EDT,Max TemperatureF,Mean TemperatureF,Min TemperatureF,Max Dew PointF,MeanDew PointF,Min DewpointF,Max Humidity, Mean Humidity, Min Humidity, Max Sea Level PressureIn, Mean Sea Level PressureIn, Min Sea Level PressureIn, Max VisibilityMiles, Mean VisibilityMiles, Min VisibilityMiles, Max Wind SpeedMPH, Mean Wind SpeedMPH, Max Gust SpeedMPH,PrecipitationIn, CloudCover, Events, WindDirDegrees
2013-3-1,34,32,29,27,25,21,85,76,66,29.92,29.85,29.78,10,6,0,16,8,25,0.04,8,Fog-Rain-Snow,303
2013-3-2,29,26,22,23,19,15,81,75,68,29.96,29.87,29.81,10,7,1,15,7,22,0.01,8,Snow,304
2013-3-3,27,24,20,18,15,12,84,73,62,30.02,29.91,29.85,10,5,1,20,11,29,0.10,8,Snow,301
2013-3-4,40,30,20,20,12,6,77,53,29,30.15,30.07,29.94,10,10,9,16,8,23,T,4,Rain-Snow,291
2013-3-5,44,38,32,34,30,24,89,69,49,30.04,29.76,29.58,10,7,1,20,7,28,0.55,8,Rain-Snow,179
2013-3-6,33,29,25,28,23,19,85,82,78,30.16,29.79,29.59,10,3,1,24,13,33,0.14,8,Rain-Snow,295
2013-3-7,29,28,27,25,24,23,92,85,78,30.30,30.23,30.08,10,6,2,14,8,20,0.03,8,,295
2013-3-8,41,35,28,25,22,20,85,67,48,30.38,30.31,30.20,10,10,8,15,7,21,T,5,,313
2013-3-9,61,44,26,26,22,20,75,49,22,30.35,30.26,30.19,10,10,2,13,5,20,0.00,0,,120
2013-3-10,67,57,47,29,27,24,42,32,22,30.17,30.12,30.03,10,10,10,24,10,37,0.00,3,,158
2013-3-11,55,52,49,47,40,29,83,61,38,30.03,29.91,29.78,10,10,6,25,10,40,0.21,6,Rain,184
2013-3-12,54,44,33,46,35,26,89,76,62,30.02,29.89,29.75,10,9,3,13,8,21,0.16,6,Rain-Snow,286
2013-3-13,36,30,23,27,23,11,85,73,60,30.19,30.02,29.96,10,5,0,24,12,35,0.11,8,Fog-Snow,283
2013-3-14,39,30,21,18,15,10,84,59,33,30.30,30.18,30.12,10,6,2,20,10,28,0.05,5,Snow,297
2013-3-15,57,43,29,32,23,12,59,48,36,30.19,30.02,29.87,10,10,10,23,10,30,0.00,2,,262
2013-3-16,71,59,46,50,43,32,77,56,35,29.90,29.75,29.63,10,10,4,26,12,36,0.08,3,Rain-Thunderstorm,259
2013-3-17,53,45,37,47,41,33,89,83,76,30.04,29.98,29.86,10,6,1,22,6,33,0.26,8,Rain,35
2013-3-18,45,40,34,38,33,30,89,86,82,30.03,29.92,29.80,10,8,2,24,7,35,0.37,7,Rain,142
2013-3-19,51,43,34,43,24,-2,86,51,16,30.05,29.90,29.79,10,9,2,31,15,44,0.11,4,Rain,282
2013-3-20,47,37,27,27,15,2,85,52,19,30.05,29.90,29.80,10,7,0,25,11,35,0.06,4,Snow,288
2013-3-21,27,22,17,25,12,6,81,69,56,30.00,29.82,29.75,10,5,1,21,10,28,0.04,7,Snow,299
2013-3-22,43,28,13,12,9,7,80,53,25,30.07,30.02,29.97,10,10,10,15,6,21,0.00,1,,263
2013-3-23,50,41,32,26,19,10,59,47,35,30.01,29.96,29.88,10,10,10,10,3,14,0.00,6,,274
2013-3-24,43,38,33,30,28,19,89,64,39,29.85,29.60,29.43,10,6,2,20,9,29,0.41,7,Rain-Snow,131
2013-3-25,35,32,28,29,24,19,85,77,69,29.82,29.55,29.43,10,3,0,25,13,37,0.35,8,Fog-Snow,272
2013-3-26,32,30,28,27,25,23,85,79,72,30.16,29.98,29.77,10,4,1,16,10,28,0.10,8,Snow,299
2013-3-27,36,32,27,25,23,19,85,77,69,30.26,30.16,30.09,10,6,1,17,10,25,0.07,8,Snow,299
2013-3-28,43,36,29,25,21,18,78,59,39,30.30,30.23,30.16,10,9,5,17,9,25,T,6,Snow,290
2013-3-29,52,41,29,26,20,18,64,46,28,30.31,30.25,30.18,10,10,10,16,6,23,0.00,3,,274
2013-3-30,58,46,33,31,27,24,75,52,28,30.22,30.14,30.00,10,10,10,14,6,20,0.00,1,,245
2013-3-31,54,50,46,46,41,30,83,64,44,29.98,29.84,29.78,10,10,8,22,9,31,0.17,7,Rain,251